Time;durP1;ratioP1;P1;durP2;ratioP2;P2;SDS_P1;SDS_P2;PMS_P1;PMS_P2;Temp;Humidity;BMP_temperature;BMP_pressure;BME280_temperature;BME280_humidity;BME280_pressure;Samples;Min_cycle;Max_cycle;Signal;HPM_P1;HPM_P2
2021/12/21 00:04:33;;;;;;;17.07;6.60;;;-1.30;99.90;;;;;;10465414;28;20493;-80
2021/12/21 00:09:55;;;;;;;10.23;5.70;;;-1.40;99.90;;;;;;10464772;28;20233;-80
2021/12/21 00:15:33;;;;;;;14.27;5.30;;;-1.40;99.90;;;;;;10434266;28;20203;-80
2021/12/21 00:21:42;;;;;;;8.27;4.90;;;-1.40;99.90;;;;;;10433728;28;20439;-80
2021/12/21 00:26:41;;;;;;;10.47;4.00;;;-1.40;99.90;;;;;;10463720;28;20225;-80
2021/12/21 00:32:03;;;;;;;7.53;4.00;;;-1.30;99.90;;;;;;10433858;28;20205;-80
2021/12/21 00:37:27;;;;;;;11.20;4.03;;;-1.40;99.90;;;;;;10433878;28;20269;-80
2021/12/21 00:42:49;;;;;;;10.03;4.70;;;-1.40;99.90;;;;;;10447467;28;20217;-79
2021/12/21 00:48:11;;;;;;;8.40;3.53;;;-1.40;99.90;;;;;;10464066;28;20232;-79
2021/12/21 00:53:36;;;;;;;11.23;4.67;;;-1.30;99.90;;;;;;10456074;28;20440;-80
2021/12/21 00:58:58;;;;;;;9.90;4.73;;;-1.20;99.90;;;;;;10419085;28;20252;-80
2021/12/21 01:04:29;;;;;;;7.10;4.07;;;-1.10;99.90;;;;;;10392747;28;20208;-80
2021/12/21 01:16:01;;;;;;;6.90;2.77;;;-0.90;99.90;;;;;;10418778;28;20203;-79
2021/12/21 01:21:28;;;;;;;4.63;2.60;;;-0.90;99.90;;;;;;10445683;28;20539;-80
2021/12/21 01:32:48;;;;;;;7.80;2.90;;;-0.90;99.90;;;;;;10459759;28;20272;-79
2021/12/21 01:43:53;;;;;;;7.27;2.90;;;-0.90;99.90;;;;;;10459627;28;20226;-80
2021/12/21 01:55:13;;;;;;;6.50;2.83;;;-0.80;99.90;;;;;;10321129;28;20207;-80
2021/12/21 02:00:36;;;;;;;4.90;2.40;;;-0.80;99.90;;;;;;10345676;28;20215;-80
2021/12/21 02:05:59;;;;;;;5.73;2.47;;;-0.80;99.90;;;;;;10337258;28;20316;-79
2021/12/21 02:11:22;;;;;;;5.60;2.70;;;-0.80;99.90;;;;;;10357685;28;20276;-80
2021/12/21 02:16:57;;;;;;;4.20;2.33;;;-0.80;99.90;;;;;;10357659;28;20559;-80
2021/12/21 02:22:21;;;;;;;3.17;1.60;;;-0.90;99.90;;;;;;10354193;28;20469;-79
2021/12/21 02:27:54;;;;;;;4.53;1.87;;;-0.80;99.90;;;;;;10420047;28;20237;-80
2021/12/21 02:33:17;;;;;;;3.60;1.53;;;-0.80;99.90;;;;;;10438624;28;20198;-80
2021/12/21 02:38:39;;;;;;;2.10;1.60;;;-0.80;99.90;;;;;;10451544;28;20240;-80
2021/12/21 02:44:01;;;;;;;6.43;2.40;;;-0.90;99.90;;;;;;10454171;28;20210;-80
2021/12/21 02:49:24;;;;;;;4.90;2.33;;;-0.80;99.90;;;;;;10467698;28;20292;-80
2021/12/21 02:54:46;;;;;;;3.47;2.07;;;-0.90;99.90;;;;;;10464793;28;20199;-80
2021/12/21 03:00:12;;;;;;;3.93;1.33;;;-0.90;99.90;;;;;;10464589;28;20550;-80
2021/12/21 03:05:37;;;;;;;2.97;1.57;;;-0.80;99.90;;;;;;10450936;28;20245;-79
2021/12/21 03:11:05;;;;;;;3.17;1.70;;;-0.80;99.90;;;;;;10450251;28;20228;-80
2021/12/21 03:16:27;;;;;;;2.13;1.50;;;-0.70;99.90;;;;;;10449837;28;20306;-80
2021/12/21 03:21:49;;;;;;;4.43;1.40;;;-0.60;99.90;;;;;;10451297;28;20206;-80
2021/12/21 03:27:11;;;;;;;3.17;1.70;;;-0.60;99.90;;;;;;10466378;28;20213;-79
2021/12/21 03:32:33;;;;;;;2.87;1.47;;;-0.60;99.90;;;;;;10463446;28;20203;-80
2021/12/21 03:37:55;;;;;;;2.27;1.63;;;-0.70;99.90;;;;;;10435463;28;20240;-79
2021/12/21 03:43:17;;;;;;;4.07;1.63;;;-0.70;99.90;;;;;;10435213;28;20213;-80
2021/12/21 03:48:42;;;;;;;2.13;1.67;;;-0.70;99.90;;;;;;10434886;28;20420;-80
2021/12/21 03:54:03;;;;;;;2.40;1.60;;;-0.70;99.90;;;;;;10448561;28;20198;-80
2021/12/21 03:59:25;;;;;;;2.47;1.60;;;-0.70;99.90;;;;;;10465350;28;20478;-80
2021/12/21 04:04:48;;;;;;;19.43;10.30;;;-0.80;99.90;;;;;;10434368;28;20198;-80
2021/12/21 04:10:10;;;;;;;63.10;31.73;;;-0.80;99.90;;;;;;10434172;28;20456;-80
2021/12/21 04:15:41;;;;;;;24.67;13.10;;;-0.90;99.90;;;;;;10447882;28;20223;-80
2021/12/21 04:21:22;;;;;;;23.37;11.57;;;-1.00;99.90;;;;;;10418138;28;20216;-80
2021/12/21 04:26:44;;;;;;;116.70;53.37;;;-1.10;99.90;;;;;;10423621;28;20204;-80
2021/12/21 04:32:07;;;;;;;75.67;42.07;;;-1.10;99.90;;;;;;10408890;28;20481;-80
2021/12/21 04:37:29;;;;;;;51.87;30.40;;;-1.10;99.90;;;;;;10422588;28;20248;-80
2021/12/21 04:42:51;;;;;;;33.50;20.23;;;-1.10;99.90;;;;;;10392382;28;20194;-80
2021/12/21 04:48:13;;;;;;;24.97;15.43;;;-1.20;99.90;;;;;;10408593;28;20229;-80
2021/12/21 04:53:35;;;;;;;12.07;7.03;;;-1.20;99.90;;;;;;10460299;28;20229;-80
2021/12/21 04:58:57;;;;;;;6.67;4.43;;;-1.30;99.90;;;;;;10405506;28;20278;-81
2021/12/21 05:04:19;;;;;;;4.17;3.00;;;-1.40;99.90;;;;;;10405539;28;20469;-81
2021/12/21 05:09:45;;;;;;;3.47;2.77;;;-1.40;99.90;;;;;;10435645;28;20241;-80
2021/12/21 05:15:08;;;;;;;5.53;3.60;;;-1.50;99.90;;;;;;10405466;28;20199;-80
2021/12/21 05:20:30;;;;;;;9.13;4.10;;;-1.50;99.90;;;;;;10406765;28;20199;-80
2021/12/21 05:25:52;;;;;;;8.27;4.03;;;-1.60;99.90;;;;;;10432675;28;20203;-80
2021/12/21 05:31:14;;;;;;;7.43;4.70;;;-1.60;99.90;;;;;;10445968;28;20535;-80
2021/12/21 05:36:37;;;;;;;7.93;4.83;;;;;;;;;;10432275;28;20235;-80
2021/12/21 05:42:00;;;;;;;7.53;5.47;;;-1.80;99.90;;;;;;10433900;28;20197;-80
2021/12/21 05:47:22;;;;;;;9.17;6.13;;;-1.80;99.90;;;;;;10439835;28;20228;-80
2021/12/21 05:52:45;;;;;;;42.90;20.33;;;-1.80;99.90;;;;;;10454366;28;20509;-80
2021/12/21 05:58:07;;;;;;;40.80;19.90;;;-1.80;99.90;;;;;;10439885;28;20195;-80
2021/12/21 06:03:28;;;;;;;32.37;17.07;;;-1.90;99.90;;;;;;10454797;28;20198;-79
2021/12/21 06:08:52;;;;;;;29.27;15.63;;;-1.90;99.90;;;;;;10453164;28;20232;-80
2021/12/21 06:14:36;;;;;;;30.30;14.40;;;-1.90;99.90;;;;;;10439293;28;20286;-80
2021/12/21 06:31:01;;;;;;;31.90;19.50;;;-1.90;99.90;;;;;;10427259;28;20227;-80
2021/12/21 06:36:24;;;;;;;40.57;19.40;;;-1.80;99.90;;;;;;10441459;28;20231;-81
2021/12/21 06:41:46;;;;;;;20.13;10.27;;;-1.90;99.90;;;;;;10396475;28;20217;-80
2021/12/21 06:52:50;;;;;;;17.53;9.23;;;-1.90;99.90;;;;;;10450620;28;20208;-80
2021/12/21 06:58:12;;;;;;;10.60;5.83;;;-1.90;99.90;;;;;;10450543;28;20204;-80
2021/12/21 07:03:36;;;;;;;7.53;4.83;;;-2.00;99.90;;;;;;10450489;28;20198;-80
2021/12/21 07:09:05;;;;;;;7.27;4.13;;;-2.00;99.90;;;;;;10450539;28;20411;-80
2021/12/21 07:20:08;;;;;;;9.47;4.50;;;-1.70;99.90;;;;;;10466104;28;20213;-81
2021/12/21 07:25:31;;;;;;;5.97;4.20;;;-1.60;99.90;;;;;;10428198;28;20202;-81
2021/12/21 07:30:53;;;;;;;8.93;4.40;;;-1.40;99.90;;;;;;10449350;28;20524;-80
2021/12/21 07:36:15;;;;;;;7.00;4.20;;;-1.30;99.90;;;;;;10435501;28;20237;-81
2021/12/21 07:41:38;;;;;;;7.30;4.73;;;-1.10;99.90;;;;;;10452085;28;20206;-81
2021/12/21 07:47:02;;;;;;;7.50;3.53;;;-1.00;99.90;;;;;;10479760;28;20225;-81
2021/12/21 07:52:24;;;;;;;4.67;2.80;;;-1.00;99.90;;;;;;10465508;28;20218;-81
2021/12/21 07:57:46;;;;;;;36.57;17.20;;;-1.10;99.90;;;;;;10448151;28;20193;-81
2021/12/21 08:03:09;;;;;;;43.63;21.63;;;-1.10;99.90;;;;;;10448113;28;20228;-80
2021/12/21 08:08:34;;;;;;;25.83;13.90;;;-1.00;99.90;;;;;;10403758;28;20238;-81
2021/12/21 08:13:57;;;;;;;36.00;18.17;;;-1.00;99.90;;;;;;10452546;28;20268;-82
2021/12/21 08:19:19;;;;;;;39.97;19.37;;;-1.10;99.90;;;;;;10414032;28;20253;-83
2021/12/21 08:24:43;;;;;;;39.40;19.43;;;-1.10;99.90;;;;;;10423478;28;20185;-83
2021/12/21 08:30:06;;;;;;;38.07;16.87;;;-1.20;99.90;;;;;;10440358;28;20237;-86
2021/12/21 08:35:30;;;;;;;40.07;17.87;;;-1.20;99.90;;;;;;10400090;28;20301;-84
2021/12/21 08:40:53;;;;;;;32.33;15.53;;;-1.00;99.90;;;;;;10400024;28;20283;-84
2021/12/21 08:46:15;;;;;;;22.93;12.77;;;-0.90;99.90;;;;;;10391090;28;20201;-81
2021/12/21 08:51:37;;;;;;;22.40;11.87;;;-0.80;99.90;;;;;;10456099;28;20237;-82
2021/12/21 08:56:59;;;;;;;40.77;16.93;;;-0.90;99.90;;;;;;10441504;28;20208;-83
2021/12/21 09:02:21;;;;;;;32.67;11.33;;;-0.80;99.90;;;;;;10442204;28;20428;-84
2021/12/21 09:07:45;;;;;;;27.40;10.27;;;-0.80;99.90;;;;;;10426214;28;20241;-84
2021/12/21 09:13:09;;;;;;;6.60;4.37;;;-0.60;99.90;;;;;;10428725;28;20419;-83
2021/12/21 09:18:32;;;;;;;7.53;4.57;;;-0.60;99.90;;;;;;10447875;28;20196;-85
2021/12/21 09:23:55;;;;;;;6.40;4.40;;;-0.50;99.90;;;;;;10437105;28;20196;-85
2021/12/21 09:29:17;;;;;;;7.83;4.80;;;-0.40;99.90;;;;;;10450586;28;20426;-80
2021/12/21 09:34:40;;;;;;;8.07;4.60;;;-0.10;99.90;;;;;;10435996;28;20270;-82
2021/12/21 09:40:06;;;;;;;8.27;4.90;;;0.30;99.90;;;;;;10449011;28;20505;-86
2021/12/21 09:45:28;;;;;;;12.53;4.83;;;0.50;99.90;;;;;;10450437;28;20217;-84
2021/12/21 09:50:52;;;;;;;8.23;4.67;;;0.60;99.90;;;;;;10451646;28;20231;-85
2021/12/21 09:56:14;;;;;;;9.30;4.87;;;0.60;99.90;;;;;;10449259;28;20185;-87
2021/12/21 10:01:36;;;;;;;7.33;5.43;;;0.60;99.90;;;;;;10434380;28;20268;-82
2021/12/21 10:06:59;;;;;;;6.77;4.23;;;0.50;99.90;;;;;;10436715;28;20190;-85
2021/12/21 10:12:29;;;;;;;6.37;3.93;;;0.60;99.90;;;;;;10408661;28;20236;-85
2021/12/21 10:18:00;;;;;;;6.73;4.37;;;0.60;99.90;;;;;;10427412;28;20233;-82
2021/12/21 10:23:29;;;;;;;4.37;3.50;;;0.70;99.90;;;;;;10461376;28;20203;-83
2021/12/21 10:29:00;;;;;;;14.60;7.03;;;0.80;99.90;;;;;;10410535;28;20283;-83
2021/12/21 10:34:28;;;;;;;12.10;7.00;;;0.80;99.90;;;;;;10407865;28;20277;-85
2021/12/21 10:40:06;;;;;;;10.67;6.00;;;0.90;99.90;;;;;;10422077;28;20522;-83
2021/12/21 10:45:34;;;;;;;8.27;4.47;;;0.80;99.90;;;;;;10417938;28;20198;-82
2021/12/21 10:50:57;;;;;;;8.77;5.17;;;0.70;99.90;;;;;;10429181;28;20219;-85
2021/12/21 10:56:18;;;;;;;8.73;4.60;;;0.80;99.90;;;;;;10435340;28;20193;-85
2021/12/21 11:01:44;;;;;;;5.53;3.20;;;0.90;99.90;;;;;;10439508;28;20209;-83
2021/12/21 11:07:31;;;;;;;5.27;2.67;;;1.10;99.90;;;;;;10458079;28;20216;-85
2021/12/21 11:13:15;;;;;;;7.87;3.77;;;1.00;99.90;;;;;;10434965;28;20373;-81
2021/12/21 11:18:40;;;;;;;6.67;4.03;;;1.00;99.90;;;;;;10401940;28;20209;-84
2021/12/21 11:24:14;;;;;;;10.10;5.40;;;0.80;99.90;;;;;;10424243;28;20192;-83
2021/12/21 11:29:39;;;;;;;17.20;6.43;;;0.60;99.90;;;;;;10459515;28;20228;-80
2021/12/21 11:37:20;;;;;;;10.47;5.37;;;0.70;99.90;;;;;;10446839;28;20270;-84
2021/12/21 11:40:52;;;;;;;29.03;17.00;;;0.70;99.90;;;;;;10417955;28;20211;-86
2021/12/21 11:46:24;;;;;;;13.30;7.10;;;0.70;99.90;;;;;;10416834;28;20208;-82
2021/12/21 11:51:46;;;;;;;6.73;4.43;;;0.60;99.90;;;;;;10446458;28;20249;-81
2021/12/21 11:57:09;;;;;;;10.73;5.50;;;0.50;99.90;;;;;;10429646;28;20242;-82
2021/12/21 12:02:32;;;;;;;8.80;5.13;;;0.60;99.90;;;;;;10460368;28;20195;-80
2021/12/21 12:08:08;;;;;;;35.23;14.07;;;0.50;99.90;;;;;;10624024;27;20573;-77
2021/12/21 12:13:32;;;;;;;12.13;4.63;;;0.40;99.90;;;;;;10548170;28;20212;-82
2021/12/21 12:18:54;;;;;;;11.37;5.60;;;0.30;99.90;;;;;;10549681;28;20197;-79
2021/12/21 12:24:21;;;;;;;5.53;3.90;;;0.20;99.90;;;;;;10567715;27;20218;-80
2021/12/21 12:29:50;;;;;;;15.20;7.23;;;0.30;99.90;;;;;;10519496;28;20240;-79
2021/12/21 12:35:18;;;;;;;16.27;6.37;;;0.50;99.90;;;;;;10518872;28;20250;-80
2021/12/21 12:40:49;;;;;;;19.43;6.70;;;0.60;99.90;;;;;;10519777;28;20279;-81
2021/12/21 12:46:23;;;;;;;20.33;9.13;;;0.60;99.90;;;;;;10548254;28;20222;-81
2021/12/21 12:51:45;;;;;;;13.47;5.80;;;0.40;99.90;;;;;;10545828;28;20229;-81
2021/12/21 12:57:10;;;;;;;22.03;10.47;;;0.40;99.90;;;;;;10528769;28;20207;-80
2021/12/21 13:02:33;;;;;;;24.90;11.60;;;0.30;99.90;;;;;;10537224;28;20198;-81
2021/12/21 13:08:13;;;;;;;36.00;13.20;;;0.30;99.90;;;;;;10546655;28;20323;-79
2021/12/21 13:13:37;;;;;;;60.07;20.30;;;0.30;99.90;;;;;;10508942;28;20364;-78
2021/12/21 13:19:03;;;;;;;33.40;11.20;;;0.40;99.90;;;;;;10479649;28;20390;-80
2021/12/21 13:24:33;;;;;;;29.90;11.80;;;0.30;99.90;;;;;;10505302;28;20306;-80
2021/12/21 13:29:54;;;;;;;19.97;7.67;;;0.20;99.90;;;;;;10533232;28;20199;-79
2021/12/21 13:35:17;;;;;;;25.67;8.07;;;0.20;99.90;;;;;;10517830;28;20202;-79
2021/12/21 13:40:39;;;;;;;23.23;7.60;;;0.20;99.90;;;;;;10533327;28;20694;-79
2021/12/21 13:46:07;;;;;;;29.17;11.47;;;0.20;99.90;;;;;;10517702;28;20227;-80
2021/12/21 13:51:29;;;;;;;18.47;6.83;;;0.20;99.90;;;;;;10515671;28;20198;-81
2021/12/21 13:56:52;;;;;;;7.50;4.20;;;0.10;99.90;;;;;;10502684;28;20206;-80
2021/12/21 14:02:37;;;;;;;8.07;4.90;;;0.10;99.90;;;;;;10517199;28;20556;-79
2021/12/21 14:07:59;;;;;;;9.00;5.17;;;0.00;99.90;;;;;;10475841;28;20241;-81
2021/12/21 14:13:32;;;;;;;15.90;6.20;;;0.00;99.90;;;;;;10461802;28;20213;-81
2021/12/21 14:18:56;;;;;;;8.97;5.47;;;-0.10;99.90;;;;;;10453788;28;20208;-79
2021/12/21 14:24:28;;;;;;;10.23;5.20;;;-0.10;99.90;;;;;;10488512;28;20250;-80
2021/12/21 14:29:53;;;;;;;11.03;6.27;;;-0.20;99.90;;;;;;10473905;28;20579;-78
2021/12/21 14:35:15;;;;;;;13.23;6.50;;;-0.20;99.90;;;;;;10471634;28;20190;-79
2021/12/21 14:40:47;;;;;;;25.03;10.93;;;-0.20;99.90;;;;;;10488869;28;20199;-79
2021/12/21 14:46:18;;;;;;;34.77;12.87;;;-0.20;99.90;;;;;;10474874;28;20417;-79
2021/12/21 14:51:52;;;;;;;25.40;11.03;;;-0.30;99.90;;;;;;10445677;28;20489;-79
2021/12/21 14:57:13;;;;;;;45.73;13.37;;;-0.40;99.90;;;;;;10474193;28;20501;-78
2021/12/21 15:08:01;;;;;;;35.77;17.10;;;-0.50;99.90;;;;;;10469219;28;20253;-79
2021/12/21 15:13:23;;;;;;;34.20;15.40;;;-0.60;99.90;;;;;;10468199;28;20219;-79
2021/12/21 15:18:45;;;;;;;29.07;14.80;;;-0.70;99.90;;;;;;10472917;28;20244;-79
2021/12/21 15:24:07;;;;;;;31.07;16.10;;;-0.80;99.90;;;;;;10459541;28;20460;-78
2021/12/21 15:29:29;;;;;;;41.40;20.53;;;-0.80;99.90;;;;;;10458241;28;20192;-80
2021/12/21 15:34:51;;;;;;;43.17;18.50;;;-0.90;99.90;;;;;;10472489;28;20204;-78
2021/12/21 15:40:17;;;;;;;27.63;12.93;;;-1.00;99.90;;;;;;10473305;28;20206;-79
2021/12/21 15:45:39;;;;;;;24.60;13.47;;;-1.10;99.90;;;;;;10471591;28;20305;-79
2021/12/21 15:51:02;;;;;;;17.83;10.37;;;-1.10;99.90;;;;;;10470243;28;20241;-79
2021/12/21 15:56:24;;;;;;;26.40;13.23;;;-1.20;99.90;;;;;;10457852;28;20207;-79
2021/12/21 16:01:46;;;;;;;43.07;17.77;;;-1.30;99.90;;;;;;10457348;28;20204;-80
2021/12/21 16:07:08;;;;;;;76.70;29.77;;;-1.40;99.90;;;;;;10482252;28;20245;-79
2021/12/21 16:12:31;;;;;;;70.30;26.70;;;-1.50;99.90;;;;;;10422617;28;20207;-81
2021/12/21 16:17:53;;;;;;;43.47;19.57;;;-1.50;99.90;;;;;;10452148;28;20205;-79
2021/12/21 16:23:15;;;;;;;25.03;12.90;;;-1.50;99.90;;;;;;10475903;28;20228;-79
2021/12/21 16:28:36;;;;;;;22.77;12.43;;;-1.60;99.90;;;;;;10461915;28;20193;-79
2021/12/21 16:33:59;;;;;;;15.77;9.27;;;-1.70;99.90;;;;;;10475650;28;20256;-80
2021/12/21 16:39:21;;;;;;;21.50;12.57;;;-1.60;99.90;;;;;;10448306;28;20371;-80
2021/12/21 16:44:44;;;;;;;14.60;9.63;;;-1.70;99.90;;;;;;10477585;28;20249;-79
2021/12/21 16:50:07;;;;;;;12.63;8.37;;;-1.70;99.90;;;;;;10476155;28;20541;-79
2021/12/21 16:55:30;;;;;;;12.80;7.83;;;-1.70;99.90;;;;;;10484015;28;20200;-79
2021/12/21 17:00:57;;;;;;;19.17;9.80;;;-1.80;99.90;;;;;;10428511;28;20423;-80
2021/12/21 17:06:20;;;;;;;25.43;12.30;;;-1.90;99.90;;;;;;10480919;28;20279;-78
2021/12/21 17:11:43;;;;;;;39.50;18.17;;;-1.90;99.90;;;;;;10455308;28;20209;-78
2021/12/21 17:17:06;;;;;;;38.20;19.13;;;-2.00;99.90;;;;;;10451885;28;20432;-79
2021/12/21 17:22:28;;;;;;;42.60;19.57;;;-2.00;99.90;;;;;;10468977;28;20426;-78
2021/12/21 17:27:50;;;;;;;57.67;23.13;;;-1.90;99.90;;;;;;10496204;28;20227;-79
2021/12/21 17:33:13;;;;;;;83.13;27.10;;;-1.80;99.90;;;;;;10482294;28;20199;-79
2021/12/21 17:38:36;;;;;;;112.73;33.87;;;-1.70;99.90;;;;;;10518216;28;20198;-79
2021/12/21 17:43:59;;;;;;;86.27;31.90;;;-1.60;99.90;;;;;;10523250;28;20509;-79
2021/12/21 17:49:21;;;;;;;63.90;26.30;;;-1.50;99.90;;;;;;10466476;28;20195;-77
2021/12/21 17:54:43;;;;;;;52.63;22.50;;;-1.40;99.90;;;;;;10467452;28;20201;-78
2021/12/21 18:00:09;;;;;;;43.80;26.63;;;-1.50;99.90;;;;;;10467164;28;20207;-78
2021/12/21 18:05:38;;;;;;;63.33;38.07;;;-1.50;99.90;;;;;;10481077;28;20283;-78
2021/12/21 18:11:00;;;;;;;52.17;31.23;;;-1.60;99.90;;;;;;10481527;28;20436;-79
2021/12/21 18:16:22;;;;;;;34.27;20.70;;;-1.50;99.90;;;;;;10467186;28;20485;-78
2021/12/21 18:21:45;;;;;;;22.63;14.83;;;-1.60;99.90;;;;;;10480415;28;20221;-78
2021/12/21 18:27:10;;;;;;;24.63;15.63;;;-1.70;99.90;;;;;;10478986;28;20449;-78
2021/12/21 18:32:32;;;;;;;22.20;13.37;;;-1.70;99.90;;;;;;10480260;28;20195;-78
2021/12/21 18:37:54;;;;;;;19.03;11.43;;;-1.50;99.90;;;;;;10466411;28;20229;-79
2021/12/21 18:43:17;;;;;;;20.53;9.47;;;-1.50;99.90;;;;;;10480155;28;20190;-78
2021/12/21 18:48:42;;;;;;;30.10;13.00;;;-1.40;99.90;;;;;;10451899;28;20304;-78
2021/12/21 18:54:04;;;;;;;25.10;12.63;;;-1.40;99.90;;;;;;10479402;28;20261;-79
2021/12/21 18:59:26;;;;;;;20.90;11.30;;;-1.40;99.90;;;;;;10479244;28;20424;-80
2021/12/21 19:04:48;;;;;;;30.90;15.63;;;-1.40;99.90;;;;;;10464255;28;20255;-79
2021/12/21 19:10:12;;;;;;;27.53;13.03;;;-1.40;99.90;;;;;;10457639;28;20421;-78
2021/12/21 19:15:35;;;;;;;27.17;14.17;;;-1.50;99.90;;;;;;10464004;28;20202;-78
2021/12/21 19:20:57;;;;;;;29.60;15.77;;;-1.60;99.90;;;;;;10464309;28;20385;-79
2021/12/21 19:26:20;;;;;;;22.43;11.80;;;-1.60;99.90;;;;;;10478106;28;20234;-78
2021/12/21 19:31:42;;;;;;;19.53;9.83;;;-1.60;99.90;;;;;;10477948;28;20198;-80
2021/12/21 19:37:08;;;;;;;17.70;10.17;;;-1.60;99.90;;;;;;10464186;28;20197;-78
2021/12/21 19:42:29;;;;;;;14.53;8.33;;;-1.50;99.90;;;;;;10477812;28;20208;-79
2021/12/21 19:47:51;;;;;;;10.90;6.33;;;-1.60;99.90;;;;;;10477687;28;20227;-78
2021/12/21 19:53:16;;;;;;;11.63;6.17;;;-1.50;99.90;;;;;;10491704;28;20278;-78
2021/12/21 19:58:40;;;;;;;19.73;9.00;;;-1.60;99.90;;;;;;10478461;28;20195;-78
2021/12/21 20:04:03;;;;;;;19.00;9.20;;;-1.80;99.90;;;;;;10478259;28;20303;-76
2021/12/21 20:09:26;;;;;;;24.37;10.73;;;-1.90;99.90;;;;;;10456942;28;20202;-78
2021/12/21 20:14:49;;;;;;;22.53;11.00;;;-2.00;99.90;;;;;;10476844;28;20188;-78
2021/12/21 20:20:14;;;;;;;19.37;9.50;;;-2.00;99.90;;;;;;10491233;28;20199;-78
2021/12/21 20:25:36;;;;;;;13.40;8.60;;;-1.90;99.90;;;;;;10455925;28;20223;-78
2021/12/21 20:30:58;;;;;;;42.03;20.90;;;-1.80;99.90;;;;;;10443608;28;20199;-77
2021/12/21 20:36:20;;;;;;;218.63;77.60;;;-1.80;99.90;;;;;;10473912;28;20200;-79
2021/12/21 20:41:43;;;;;;;338.03;122.77;;;-1.80;99.90;;;;;;10472387;28;20198;-78
2021/12/21 20:47:05;;;;;;;167.10;61.87;;;-1.90;99.90;;;;;;10461275;28;20226;-78
2021/12/21 20:52:27;;;;;;;133.07;47.50;;;-1.90;99.90;;;;;;10456581;28;20201;-78
2021/12/21 20:57:49;;;;;;;100.83;38.03;;;-1.90;99.90;;;;;;10472052;28;20199;-78
2021/12/21 21:03:12;;;;;;;71.17;29.50;;;-2.10;99.90;;;;;;10524840;28;20198;-77
2021/12/21 21:08:35;;;;;;;63.67;27.33;;;-2.20;99.90;;;;;;10469656;28;20320;-78
2021/12/21 21:13:57;;;;;;;60.30;21.40;;;-2.30;99.90;;;;;;10469377;28;20198;-78
2021/12/21 21:19:20;;;;;;;71.37;25.77;;;-2.40;99.90;;;;;;10469102;28;20519;-79
2021/12/21 21:24:43;;;;;;;134.83;49.97;;;-2.50;99.90;;;;;;10482993;28;20214;-78
2021/12/21 21:30:07;;;;;;;114.50;50.47;;;-2.40;99.90;;;;;;10497099;28;20245;-79
2021/12/21 21:35:29;;;;;;;98.37;43.83;;;-2.40;99.90;;;;;;10483025;28;20209;-78
2021/12/21 21:40:51;;;;;;;66.13;30.73;;;-2.50;99.90;;;;;;10482168;28;20194;-79
2021/12/21 21:46:14;;;;;;;40.17;20.70;;;-2.70;99.90;;;;;;10503631;28;20244;-78
2021/12/21 21:51:37;;;;;;;35.17;16.40;;;-2.80;99.90;;;;;;10480803;28;20200;-79
2021/12/21 21:57:00;;;;;;;31.00;13.33;;;-2.80;99.90;;;;;;10458182;28;20193;-77
2021/12/21 22:02:23;;;;;;;28.90;11.43;;;-2.80;99.90;;;;;;10438000;28;20372;-78
2021/12/21 22:07:49;;;;;;;33.13;14.27;;;-2.90;99.90;;;;;;10450527;28;20241;-77
2021/12/21 22:13:16;;;;;;;58.57;21.63;;;-2.90;99.90;;;;;;10481277;28;20247;-78
2021/12/21 22:18:39;;;;;;;96.27;36.20;;;-3.10;99.90;;;;;;10506379;28;20545;-78
2021/12/21 22:24:01;;;;;;;130.33;48.90;;;;;;;;;;10468690;28;20197;-78
2021/12/21 22:29:24;;;;;;;76.93;29.80;;;-3.20;99.90;;;;;;10479770;28;20204;-78
2021/12/21 22:34:47;;;;;;;42.23;16.53;;;-3.20;99.90;;;;;;10491227;28;20585;-78
2021/12/21 22:40:10;;;;;;;38.50;15.00;;;-3.20;99.90;;;;;;10489434;28;20224;-78
2021/12/21 22:45:33;;;;;;;31.63;12.80;;;-3.20;99.90;;;;;;10460546;28;20303;-78
2021/12/21 22:50:56;;;;;;;30.67;12.53;;;-3.10;99.90;;;;;;10501219;28;20256;-79
2021/12/21 22:56:19;;;;;;;26.87;12.43;;;-3.20;99.90;;;;;;10486461;28;20181;-78
2021/12/21 23:01:43;;;;;;;31.17;13.10;;;-3.30;99.90;;;;;;10470781;28;20184;-78
2021/12/21 23:07:05;;;;;;;42.60;17.13;;;-3.20;99.90;;;;;;10495276;28;20256;-79
2021/12/21 23:12:27;;;;;;;25.63;11.70;;;-3.20;99.90;;;;;;10440726;28;20196;-79
2021/12/21 23:17:50;;;;;;;23.50;10.17;;;-3.10;99.90;;;;;;10485329;28;20548;-79
2021/12/21 23:23:12;;;;;;;24.87;11.93;;;-3.10;99.90;;;;;;10456158;28;20188;-78
2021/12/21 23:28:34;;;;;;;29.87;11.67;;;-3.20;99.90;;;;;;10458725;28;20223;-78
2021/12/21 23:34:01;;;;;;;25.13;10.63;;;-3.20;99.90;;;;;;10477404;28;20189;-79
2021/12/21 23:39:24;;;;;;;18.83;8.83;;;-3.20;99.90;;;;;;10484093;28;20201;-78
2021/12/21 23:44:46;;;;;;;18.07;7.87;;;-3.20;99.90;;;;;;10468729;28;20499;-79
2021/12/21 23:50:10;;;;;;;23.47;10.37;;;-3.10;99.90;;;;;;10477259;28;20233;-77
2021/12/21 23:55:32;;;;;;;25.83;11.37;;;-3.10;99.90;;;;;;10463250;28;20192;-78
